AFR2N LFPG-KJFK
Flight info
| Callsign | AFR2N |
|---|---|
| Flight time | N/A |
| Altitude | 34000 |
| Route | ELCOB UT300 SENLO DCT JSY DCT LIZAD DCT LESLU DCT TOBOR/M084F360 DCT 5230N02000W 5130N03000W 4930N04000W 4730N05000W DCT OMSAT/N0476F360 N226B TUSKY DCT PLYMM PARCH4 |
| Aircraft | B77W/H-SDE1E2E3FGHIJ2J3J4J5M1RWXY/LB1D1 |
Departure
| Time | N/A |
|---|---|
| Airport | Charles de Gaulle International Airport (LFPG) |
Arrival
| Time | 2026-05-08 13:05 |
|---|---|
| Airport | John F. Kennedy International Airport (KJFK) |
| Time | Latitude | Longitude | Altitude | Speed | Heading |
|---|---|---|---|---|---|
| 2026-05-08 12:13 | 43.26545 | -67.70715 | 37854 ft | 426 kts | 239° |
| 2026-05-08 12:13 | 43.25040 | -67.74223 | 37856 ft | 427 kts | 239° |
| 2026-05-08 12:14 | 43.22012 | -67.81271 | 37871 ft | 432 kts | 239° |
| 2026-05-08 12:14 | 43.18932 | -67.88420 | 37843 ft | 438 kts | 239° |
| 2026-05-08 12:15 | 43.15829 | -67.95606 | 37861 ft | 439 kts | 239° |
| 2026-05-08 12:15 | 43.12706 | -68.02821 | 37876 ft | 441 kts | 240° |
| 2026-05-08 12:16 | 43.09568 | -68.10051 | 37872 ft | 442 kts | 240° |
| 2026-05-08 12:16 | 43.06420 | -68.17289 | 37868 ft | 442 kts | 239° |
| 2026-05-08 12:17 | 43.03273 | -68.24504 | 37865 ft | 441 kts | 240° |
| 2026-05-08 12:17 | 43.00132 | -68.31688 | 37871 ft | 439 kts | 240° |
| 2026-05-08 12:18 | 42.97000 | -68.38836 | 37879 ft | 438 kts | 240° |
| 2026-05-08 12:18 | 42.93869 | -68.45963 | 37879 ft | 437 kts | 240° |
| 2026-05-08 12:19 | 42.90742 | -68.53063 | 37897 ft | 436 kts | 240° |
| 2026-05-08 12:19 | 42.87617 | -68.60143 | 37885 ft | 436 kts | 240° |
| 2026-05-08 12:20 | 42.84485 | -68.67220 | 37882 ft | 436 kts | 240° |
| 2026-05-08 12:20 | 42.81348 | -68.74292 | 37891 ft | 436 kts | 240° |
| 2026-05-08 12:21 | 42.78206 | -68.81359 | 37891 ft | 437 kts | 240° |
| 2026-05-08 12:21 | 42.75054 | -68.88430 | 37918 ft | 437 kts | 240° |
| 2026-05-08 12:22 | 42.71893 | -68.95506 | 37900 ft | 438 kts | 240° |
| 2026-05-08 12:22 | 42.68725 | -69.02580 | 37898 ft | 438 kts | 240° |
| 2026-05-08 12:23 | 42.65551 | -69.09651 | 37880 ft | 438 kts | 240° |
| 2026-05-08 12:23 | 42.62398 | -69.16656 | 37895 ft | 437 kts | 240° |
| 2026-05-08 12:24 | 42.59225 | -69.23690 | 37895 ft | 437 kts | 240° |
| 2026-05-08 12:24 | 42.56049 | -69.30715 | 37893 ft | 437 kts | 240° |
| 2026-05-08 12:25 | 42.52871 | -69.37728 | 37902 ft | 436 kts | 240° |
| 2026-05-08 12:25 | 42.49697 | -69.44715 | 37897 ft | 435 kts | 240° |
| 2026-05-08 12:26 | 42.46525 | -69.51681 | 37908 ft | 434 kts | 240° |
| 2026-05-08 12:26 | 42.43355 | -69.58626 | 37909 ft | 434 kts | 240° |
| 2026-05-08 12:27 | 42.40181 | -69.65566 | 37903 ft | 433 kts | 240° |
| 2026-05-08 12:27 | 42.37008 | -69.72485 | 37909 ft | 432 kts | 240° |
| 2026-05-08 12:28 | 42.33837 | -69.79385 | 37909 ft | 432 kts | 240° |
| 2026-05-08 12:28 | 42.30687 | -69.86222 | 37916 ft | 431 kts | 240° |
| 2026-05-08 12:29 | 42.27510 | -69.93106 | 37927 ft | 432 kts | 240° |
| 2026-05-08 12:29 | 42.24329 | -69.99979 | 37876 ft | 432 kts | 240° |
| 2026-05-08 12:30 | 42.21151 | -70.06831 | 37903 ft | 431 kts | 240° |
| 2026-05-08 12:30 | 42.17970 | -70.13673 | 37925 ft | 430 kts | 240° |
| 2026-05-08 12:31 | 42.14788 | -70.20504 | 37947 ft | 430 kts | 240° |
| 2026-05-08 12:31 | 42.11601 | -70.27331 | 37935 ft | 431 kts | 240° |
| 2026-05-08 12:32 | 42.08406 | -70.34161 | 37899 ft | 431 kts | 240° |
| 2026-05-08 12:32 | 42.05225 | -70.40997 | 37912 ft | 430 kts | 242° |
| 2026-05-08 12:33 | 42.02632 | -70.48205 | 37918 ft | 428 kts | 249° |
| 2026-05-08 12:33 | 42.00342 | -70.55594 | 37928 ft | 428 kts | 249° |
| 2026-05-08 12:34 | 41.98025 | -70.62976 | 37920 ft | 429 kts | 249° |
| 2026-05-08 12:34 | 41.95695 | -70.70359 | 37915 ft | 429 kts | 249° |
| 2026-05-08 12:35 | 41.93360 | -70.77731 | 37909 ft | 429 kts | 249° |
| 2026-05-08 12:35 | 41.91022 | -70.85097 | 37917 ft | 429 kts | 249° |
| 2026-05-08 12:36 | 41.88677 | -70.92464 | 37929 ft | 430 kts | 249° |
| 2026-05-08 12:36 | 41.86325 | -70.99833 | 37926 ft | 430 kts | 249° |
| 2026-05-08 12:37 | 41.83966 | -71.07207 | 37882 ft | 430 kts | 249° |
| 2026-05-08 12:37 | 41.81607 | -71.14557 | 37913 ft | 429 kts | 249° |
| 2026-05-08 12:38 | 41.79252 | -71.21880 | 37919 ft | 428 kts | 249° |
| 2026-05-08 12:38 | 41.76893 | -71.29196 | 37949 ft | 428 kts | 249° |
| 2026-05-08 12:39 | 41.74515 | -71.36494 | 37939 ft | 428 kts | 246° |
| 2026-05-08 12:39 | 41.71242 | -71.43189 | 37952 ft | 433 kts | 236° |
| 2026-05-08 12:40 | 41.67098 | -71.49082 | 37943 ft | 439 kts | 226° |
| 2026-05-08 12:40 | 41.62419 | -71.54263 | 37936 ft | 440 kts | 225° |
| 2026-05-08 12:41 | 41.57676 | -71.59451 | 37942 ft | 441 kts | 225° |
| 2026-05-08 12:41 | 41.52953 | -71.64671 | 37900 ft | 441 kts | 226° |
| 2026-05-08 12:42 | 41.48245 | -71.69896 | 37930 ft | 440 kts | 226° |
| 2026-05-08 12:42 | 41.43540 | -71.75114 | 37943 ft | 440 kts | 226° |
| 2026-05-08 12:43 | 41.38837 | -71.80318 | 37945 ft | 439 kts | 226° |
| 2026-05-08 12:43 | 41.34129 | -71.85518 | 37592 ft | 444 kts | 226° |
| 2026-05-08 12:44 | 41.31729 | -71.88168 | 36988 ft | 446 kts | 226° |
| 2026-05-08 12:44 | 41.29343 | -71.90791 | 36180 ft | 445 kts | 226° |
| 2026-05-08 12:44 | 41.26965 | -71.93404 | 35375 ft | 444 kts | 226° |
| 2026-05-08 12:44 | 41.24578 | -71.96026 | 34494 ft | 446 kts | 226° |
| 2026-05-08 12:45 | 41.22184 | -71.98654 | 33539 ft | 447 kts | 227° |
| 2026-05-08 12:45 | 41.19787 | -72.01282 | 32556 ft | 446 kts | 227° |
| 2026-05-08 12:45 | 41.17401 | -72.03893 | 31591 ft | 442 kts | 228° |
| 2026-05-08 12:45 | 41.15043 | -72.06469 | 30740 ft | 437 kts | 229° |
| 2026-05-08 12:46 | 41.12874 | -72.09173 | 29895 ft | 419 kts | 237° |
| 2026-05-08 12:46 | 41.11140 | -72.12193 | 29049 ft | 405 kts | 243° |
| 2026-05-08 12:46 | 41.09673 | -72.15273 | 28268 ft | 396 kts | 245° |
| 2026-05-08 12:46 | 41.08381 | -72.18448 | 27526 ft | 387 kts | 250° |
| 2026-05-08 12:47 | 41.07456 | -72.21745 | 26840 ft | 378 kts | 256° |
| 2026-05-08 12:47 | 41.06663 | -72.25046 | 26152 ft | 374 kts | 256° |
| 2026-05-08 12:47 | 41.05870 | -72.28313 | 25489 ft | 371 kts | 256° |
| 2026-05-08 12:47 | 41.05076 | -72.31553 | 24830 ft | 368 kts | 256° |
| 2026-05-08 12:48 | 41.04284 | -72.34765 | 24183 ft | 366 kts | 255° |
| 2026-05-08 12:48 | 41.03491 | -72.37965 | 23518 ft | 365 kts | 255° |
| 2026-05-08 12:48 | 41.02698 | -72.41152 | 22778 ft | 363 kts | 255° |
| 2026-05-08 12:48 | 41.01908 | -72.44321 | 22112 ft | 361 kts | 255° |
| 2026-05-08 12:49 | 41.01124 | -72.47457 | 21472 ft | 358 kts | 255° |
| 2026-05-08 12:49 | 41.00344 | -72.50576 | 20848 ft | 356 kts | 255° |
| 2026-05-08 12:49 | 40.99567 | -72.53677 | 20229 ft | 354 kts | 255° |
| 2026-05-08 12:49 | 40.98794 | -72.56759 | 19633 ft | 352 kts | 255° |
| 2026-05-08 12:50 | 40.98022 | -72.59832 | 19032 ft | 351 kts | 255° |
| 2026-05-08 12:50 | 40.97253 | -72.62892 | 18440 ft | 350 kts | 255° |
| 2026-05-08 12:50 | 40.96484 | -72.65948 | 17778 ft | 350 kts | 255° |
| 2026-05-08 12:50 | 40.95717 | -72.68995 | 17143 ft | 348 kts | 255° |
| 2026-05-08 12:51 | 40.94950 | -72.72027 | 16554 ft | 347 kts | 255° |
| 2026-05-08 12:51 | 40.93199 | -72.77912 | 15355 ft | 346 kts | 243° |
| 2026-05-08 12:51 | 40.91767 | -72.80491 | 14814 ft | 350 kts | 234° |
| 2026-05-08 12:52 | 40.90048 | -72.82782 | 14242 ft | 354 kts | 225° |
| 2026-05-08 12:52 | 40.86049 | -72.86605 | 13096 ft | 355 kts | 221° |
| 2026-05-08 12:52 | 40.84040 | -72.88492 | 12533 ft | 353 kts | 221° |
| 2026-05-08 12:53 | 40.82043 | -72.90379 | 11977 ft | 352 kts | 221° |
| 2026-05-08 12:53 | 40.80058 | -72.92266 | 11440 ft | 351 kts | 221° |
| 2026-05-08 12:53 | 40.78083 | -72.94152 | 10895 ft | 350 kts | 221° |
| 2026-05-08 12:53 | 40.76138 | -72.96007 | 10699 ft | 339 kts | 221° |
| 2026-05-08 12:54 | 40.74257 | -72.97801 | 10544 ft | 328 kts | 221° |
| 2026-05-08 12:54 | 40.72435 | -72.99539 | 10416 ft | 318 kts | 222° |
| 2026-05-08 12:54 | 40.70668 | -73.01223 | 10257 ft | 309 kts | 222° |
| 2026-05-08 12:54 | 40.69076 | -73.02923 | 10134 ft | 287 kts | 234° |
| 2026-05-08 12:55 | 40.68030 | -73.05042 | 10040 ft | 268 kts | 251° |
| 2026-05-08 12:55 | 40.67363 | -73.07275 | 9909 ft | 258 kts | 255° |
| 2026-05-08 12:55 | 40.66744 | -73.09496 | 9560 ft | 258 kts | 255° |
| 2026-05-08 12:55 | 40.66133 | -73.11706 | 9238 ft | 257 kts | 255° |
| 2026-05-08 12:56 | 40.65523 | -73.13915 | 8919 ft | 257 kts | 255° |
| 2026-05-08 12:56 | 40.64909 | -73.16125 | 8581 ft | 257 kts | 254° |
| 2026-05-08 12:56 | 40.64294 | -73.18330 | 8256 ft | 256 kts | 254° |
| 2026-05-08 12:56 | 40.63676 | -73.20534 | 7920 ft | 257 kts | 254° |
| 2026-05-08 12:57 | 40.63058 | -73.22733 | 7600 ft | 257 kts | 253° |
| 2026-05-08 12:57 | 40.62437 | -73.24944 | 7274 ft | 258 kts | 253° |
| 2026-05-08 12:57 | 40.61809 | -73.27165 | 6929 ft | 259 kts | 253° |
| 2026-05-08 12:57 | 40.61178 | -73.29394 | 6609 ft | 260 kts | 253° |
| 2026-05-08 12:58 | 40.60548 | -73.31623 | 6265 ft | 260 kts | 253° |
| 2026-05-08 12:58 | 40.59914 | -73.33859 | 5912 ft | 261 kts | 253° |
| 2026-05-08 12:58 | 40.59280 | -73.36096 | 5569 ft | 261 kts | 253° |
| 2026-05-08 12:58 | 40.58647 | -73.38324 | 5305 ft | 258 kts | 252° |
| 2026-05-08 12:59 | 40.58024 | -73.40514 | 5088 ft | 253 kts | 252° |
| 2026-05-08 12:59 | 40.57417 | -73.42649 | 4602 ft | 249 kts | 252° |
| 2026-05-08 12:59 | 40.56805 | -73.44803 | 4201 ft | 252 kts | 252° |
| 2026-05-08 12:59 | 40.56388 | -73.46266 | 3901 ft | 254 kts | 252° |
| 2026-05-08 13:00 | 40.55760 | -73.48472 | 3392 ft | 260 kts | 252° |
| 2026-05-08 13:00 | 40.55127 | -73.50687 | 3152 ft | 255 kts | 252° |
| 2026-05-08 13:00 | 40.54690 | -73.52858 | 2974 ft | 238 kts | 272° |
| 2026-05-08 13:00 | 40.55065 | -73.54887 | 2832 ft | 222 kts | 296° |
| 2026-05-08 13:01 | 40.55709 | -73.56675 | 2713 ft | 212 kts | 298° |
| 2026-05-08 13:01 | 40.56406 | -73.58354 | 2599 ft | 212 kts | 301° |
| 2026-05-08 13:01 | 40.57160 | -73.60030 | 2501 ft | 207 kts | 302° |
| 2026-05-08 13:01 | 40.57876 | -73.61603 | 2464 ft | 193 kts | 302° |
| 2026-05-08 13:02 | 40.58547 | -73.63080 | 2330 ft | 183 kts | 302° |
| 2026-05-08 13:02 | 40.59186 | -73.64488 | 2120 ft | 177 kts | 302° |
| 2026-05-08 13:02 | 40.59805 | -73.65855 | 1844 ft | 170 kts | 301° |
| 2026-05-08 13:02 | 40.60388 | -73.67142 | 1617 ft | 158 kts | 302° |
| 2026-05-08 13:03 | 40.60921 | -73.68314 | 1405 ft | 140 kts | 301° |
| 2026-05-08 13:03 | 40.61424 | -73.69427 | 1240 ft | 142 kts | 300° |
| 2026-05-08 13:03 | 40.61931 | -73.70545 | 1045 ft | 142 kts | 300° |
| 2026-05-08 13:03 | 40.62436 | -73.71657 | 824 ft | 142 kts | 300° |
| 2026-05-08 13:04 | 40.62940 | -73.72765 | 636 ft | 139 kts | 301° |
| 2026-05-08 13:04 | 40.63428 | -73.73855 | 450 ft | 137 kts | 301° |
| 2026-05-08 13:04 | 40.63925 | -73.74940 | 288 ft | 140 kts | 300° |
| 2026-05-08 13:04 | 40.64425 | -73.76060 | 105 ft | 144 kts | 302° |
| 2026-05-08 13:05 | 40.64929 | -73.77163 | 28 ft | 132 kts | 301° |
| 2026-05-08 13:05 | 40.65310 | -73.77993 | 29 ft | 79 kts | 301° |
| 2026-05-08 13:05 | 40.65446 | -73.78313 | 27 ft | 8 kts | 262° |
| 2026-05-08 13:05 | 40.65399 | -73.78380 | 29 ft | 11 kts | 233° |
| 2026-05-08 13:06 | 40.65357 | -73.78468 | 28 ft | 12 kts | 241° |
| 2026-05-08 13:06 | 40.65315 | -73.78569 | 28 ft | 13 kts | 242° |
| 2026-05-08 13:06 | 40.65272 | -73.78675 | 32 ft | 15 kts | 241° |
| 2026-05-08 13:06 | 40.65222 | -73.78816 | 28 ft | 18 kts | 255° |
| 2026-05-08 13:07 | 40.65236 | -73.78975 | 28 ft | 18 kts | 291° |
| 2026-05-08 13:07 | 40.65274 | -73.79128 | 28 ft | 18 kts | 286° |
| 2026-05-08 13:07 | 40.65288 | -73.79287 | 28 ft | 18 kts | 263° |
| 2026-05-08 13:07 | 40.65244 | -73.79439 | 28 ft | 18 kts | 243° |
| 2026-05-08 13:08 | 40.65184 | -73.79578 | 28 ft | 18 kts | 240° |
| 2026-05-08 13:08 | 40.65117 | -73.79716 | 28 ft | 18 kts | 227° |
| 2026-05-08 13:08 | 40.65011 | -73.79797 | 28 ft | 18 kts | 193° |
| 2026-05-08 13:08 | 40.64890 | -73.79806 | 28 ft | 18 kts | 181° |
| 2026-05-08 13:09 | 40.64768 | -73.79789 | 28 ft | 18 kts | 162° |
| 2026-05-08 13:09 | 40.64663 | -73.79705 | 28 ft | 18 kts | 143° |
| 2026-05-08 13:09 | 40.64562 | -73.79614 | 28 ft | 18 kts | 159° |
| 2026-05-08 13:09 | 40.64439 | -73.79593 | 29 ft | 18 kts | 175° |
| 2026-05-08 13:10 | 40.64316 | -73.79591 | 29 ft | 18 kts | 183° |
| 2026-05-08 13:10 | 40.64217 | -73.79601 | 29 ft | 10 kts | 178° |
| 2026-05-08 13:10 | 40.64189 | -73.79566 | 29 ft | 5 kts | 101° |
| 2026-05-08 13:10 | 40.64196 | -73.79522 | 29 ft | 5 kts | 74° |
| 2026-05-08 13:11 | 40.64208 | -73.79472 | 29 ft | 6 kts | 69° |
| 2026-05-08 13:11 | 40.64230 | -73.79419 | 29 ft | 7 kts | 55° |
| 2026-05-08 13:11 | 40.64269 | -73.79363 | 29 ft | 9 kts | 46° |
| 2026-05-08 13:11 | 40.64303 | -73.79308 | 29 ft | 7 kts | 71° |
| 2026-05-08 13:12 | 40.64294 | -73.79246 | 29 ft | 7 kts | 105° |
| 2026-05-08 13:12 | 40.64285 | -73.79205 | 29 ft | 1 kts | 105° |
| 2026-05-08 13:12 | 40.64285 | -73.79203 | 29 ft | 0 kts | 105° |